Time;durP1;ratioP1;P1;durP2;ratioP2;P2;SDS_P1;SDS_P2;PMS_P1;PMS_P2;Temp;Humidity;BMP_temperature;BMP_pressure;BME280_temperature;BME280_humidity;BME280_pressure;Samples;Min_cycle;Max_cycle;Signal;HPM_P1;HPM_P2
2022/03/16 00:01:08;;;;;;;11.47;10.57;;;;;;;;;;5099387;28;20693;-67
2022/03/16 00:03:55;;;;;;;12.90;11.70;;;;;;;;;;5097571;28;20203;-67
2022/03/16 00:06:42;;;;;;;11.37;10.47;;;;;;;;;;5102498;28;20219;-67
2022/03/16 00:09:29;;;;;;;12.07;11.07;;;;;;;;;;5099260;28;20795;-67
2022/03/16 00:12:17;;;;;;;12.47;11.37;;;;;;;;;;5100072;28;20251;-68
2022/03/16 00:15:06;;;;;;;12.23;11.23;;;;;;;;;;5098541;28;20254;-67
2022/03/16 00:17:53;;;;;;;11.67;10.73;;;;;;;;;;5099414;28;20259;-67
2022/03/16 00:20:40;;;;;;;11.63;10.73;;;;;;;;;;5097136;28;20635;-68
2022/03/16 00:23:27;;;;;;;11.50;10.50;;;;;;;;;;5098632;28;20215;-68
2022/03/16 00:26:14;;;;;;;11.67;10.77;;;;;;;;;;5095457;28;20298;-68
2022/03/16 00:29:01;;;;;;;12.00;11.00;;;;;;;;;;5099174;28;20247;-67
2022/03/16 00:31:50;;;;;;;11.53;10.53;;;;;;;;;;5099676;27;20337;-67
2022/03/16 00:34:37;;;;;;;11.60;10.70;;;;;;;;;;5100998;28;20218;-67
2022/03/16 00:37:24;;;;;;;11.23;10.33;;;;;;;;;;5102677;28;20208;-67
2022/03/16 00:40:11;;;;;;;10.77;9.97;;;;;;;;;;5098689;28;20317;-68
2022/03/16 00:42:58;;;;;;;11.20;10.30;;;;;;;;;;5120401;27;20316;-67
2022/03/16 00:45:45;;;;;;;11.60;10.70;;;;;;;;;;5156276;27;20615;-68
2022/03/16 00:48:33;;;;;;;11.07;10.27;;;;;;;;;;5154300;27;20680;-68
2022/03/16 00:51:20;;;;;;;10.40;9.70;;;;;;;;;;5154610;27;20216;-68
2022/03/16 00:54:07;;;;;;;11.93;11.00;;;;;;;;;;5150308;27;20206;-68
2022/03/16 00:56:54;;;;;;;10.77;9.87;;;;;;;;;;5159146;27;20207;-68
2022/03/16 00:59:41;;;;;;;11.63;10.70;;;;;;;;;;5158140;27;20204;-68
2022/03/16 01:02:28;;;;;;;10.23;9.53;;;;;;;;;;5154437;27;20588;-68
2022/03/16 01:05:16;;;;;;;11.47;10.57;;;;;;;;;;5152285;27;20304;-68
2022/03/16 01:08:04;;;;;;;11.33;10.43;;;;;;;;;;5161532;27;20301;-68
2022/03/16 01:10:51;;;;;;;11.27;10.37;;;;;;;;;;5158748;27;20197;-69
2022/03/16 01:13:38;;;;;;;11.40;10.47;;;;;;;;;;5149984;27;20754;-67
2022/03/16 01:16:25;;;;;;;11.33;10.43;;;;;;;;;;5153131;27;20197;-68
2022/03/16 01:19:14;;;;;;;10.60;9.80;;;;;;;;;;5154395;27;20257;-68
2022/03/16 01:22:03;;;;;;;10.97;10.17;;;;;;;;;;5165251;27;20241;-68
2022/03/16 01:24:50;;;;;;;10.40;9.60;;;;;;;;;;5163196;27;20356;-67
2022/03/16 01:27:37;;;;;;;11.20;10.40;;;;;;;;;;5158451;27;20210;-68
2022/03/16 01:30:24;;;;;;;10.67;9.87;;;;;;;;;;5155112;27;20290;-68
2022/03/16 01:33:11;;;;;;;10.40;9.70;;;;;;;;;;5158110;27;20210;-68
2022/03/16 01:35:58;;;;;;;10.80;10.00;;;;;;;;;;5160087;27;20205;-68
2022/03/16 01:38:46;;;;;;;10.00;9.30;;;;;;;;;;5150901;27;20302;-68
2022/03/16 01:41:33;;;;;;;10.87;10.07;;;;;;;;;;5149204;27;20688;-68
2022/03/16 01:44:42;;;;;;;10.60;9.80;;;;;;;;;;5157162;27;20216;-69
2022/03/16 01:47:30;;;;;;;10.87;10.07;;;;;;;;;;5153506;27;20236;-68
2022/03/16 01:50:16;;;;;;;10.80;10.00;;;;;;;;;;5155017;27;20221;-68
2022/03/16 01:53:04;;;;;;;10.73;9.93;;;;;;;;;;5154904;27;20315;-68
2022/03/16 01:55:53;;;;;;;11.40;10.47;;;;;;;;;;5153568;27;20674;-68
2022/03/16 01:58:40;;;;;;;10.90;10.10;;;;;;;;;;5150791;27;20346;-68
2022/03/16 02:01:27;;;;;;;10.67;9.97;;;;;;;;;;5156574;27;20709;-68
2022/03/16 02:04:13;;;;;;;10.73;9.93;;;;;;;;;;5157480;27;20239;-67
2022/03/16 02:07:01;;;;;;;10.20;9.50;;;;;;;;;;5162216;27;20202;-68
2022/03/16 02:09:49;;;;;;;10.70;9.93;;;;;;;;;;5158970;27;20206;-67
2022/03/16 02:12:45;;;;;;;10.53;9.63;;;;;;;;;;5153104;27;20755;-69
2022/03/16 02:15:32;;;;;;;10.20;9.50;;;;;;;;;;5144821;27;20229;-67
2022/03/16 02:18:19;;;;;;;10.43;9.63;;;;;;;;;;5160086;27;20345;-68
2022/03/16 02:21:08;;;;;;;11.20;10.40;;;;;;;;;;5156972;27;20307;-68
2022/03/16 02:23:56;;;;;;;10.50;9.70;;;;;;;;;;5159238;27;20331;-68
2022/03/16 02:26:43;;;;;;;9.63;8.93;;;;;;;;;;5158853;27;20702;-67
2022/03/16 02:29:30;;;;;;;10.40;9.63;;;;;;;;;;5158816;27;20279;-68
2022/03/16 02:32:17;;;;;;;9.87;9.17;;;;;;;;;;5156117;27;20669;-67
2022/03/16 02:35:05;;;;;;;9.83;9.13;;;;;;;;;;5152380;27;20205;-68
2022/03/16 02:37:52;;;;;;;10.13;9.43;;;;;;;;;;5157373;27;20536;-68
2022/03/16 02:40:40;;;;;;;10.80;10.00;;;;;;;;;;5159912;27;20224;-68
2022/03/16 02:43:27;;;;;;;10.53;9.73;;;;;;;;;;5154886;27;20241;-68
2022/03/16 02:46:14;;;;;;;9.97;9.27;;;;;;;;;;5151851;27;20281;-67
2022/03/16 02:49:01;;;;;;;10.57;9.77;;;;;;;;;;5161038;27;20260;-69
2022/03/16 02:51:48;;;;;;;10.00;9.30;;;;;;;;;;5161386;27;20211;-67
2022/03/16 02:54:35;;;;;;;10.50;9.70;;;;;;;;;;5159192;27;20208;-68
2022/03/16 02:57:24;;;;;;;9.30;8.70;;;;;;;;;;5153144;27;20370;-69
2022/03/16 03:00:13;;;;;;;9.67;8.97;;;;;;;;;;5163170;27;20907;-67
2022/03/16 03:03:00;;;;;;;9.77;9.07;;;;;;;;;;5158062;27;20225;-67
2022/03/16 03:05:47;;;;;;;9.80;9.10;;;;;;;;;;5156188;27;20286;-67
2022/03/16 03:08:34;;;;;;;8.97;8.37;;;;;;;;;;5161174;27;20241;-68
2022/03/16 03:11:21;;;;;;;9.50;8.80;;;;;;;;;;5163433;27;20200;-68
2022/03/16 03:14:10;;;;;;;9.00;8.40;;;;;;;;;;5159046;27;20564;-68
2022/03/16 03:16:57;;;;;;;9.30;8.60;;;;;;;;;;5158680;27;20249;-68
2022/03/16 03:19:44;;;;;;;9.43;8.73;;;;;;;;;;5159544;27;20194;-68
2022/03/16 03:22:31;;;;;;;9.60;8.90;;;;;;;;;;5155247;27;20239;-68
2022/03/16 03:25:18;;;;;;;9.63;8.93;;;;;;;;;;5155243;27;20306;-68
2022/03/16 03:28:05;;;;;;;9.00;8.40;;;;;;;;;;5149326;27;20213;-68
2022/03/16 03:30:53;;;;;;;9.53;8.83;;;;;;;;;;5154118;27;20207;-68
2022/03/16 03:33:40;;;;;;;9.57;8.87;;;;;;;;;;5159700;27;20295;-68
2022/03/16 03:36:27;;;;;;;9.47;8.77;;;;;;;;;;5159868;27;20289;-68
2022/03/16 03:39:14;;;;;;;9.60;8.83;;;;;;;;;;5154509;27;20685;-68
2022/03/16 03:42:01;;;;;;;9.77;9.07;;;;;;;;;;5153073;27;20313;-68
2022/03/16 03:44:48;;;;;;;9.23;8.60;;;;;;;;;;5163989;27;20192;-68
2022/03/16 03:47:36;;;;;;;9.83;9.07;;;;;;;;;;5157853;27;20238;-68
2022/03/16 03:50:23;;;;;;;9.93;9.23;;;;;;;;;;5157588;27;20221;-68
2022/03/16 03:53:10;;;;;;;9.60;8.90;;;;;;;;;;5151685;27;20223;-68
2022/03/16 03:55:57;;;;;;;9.53;8.83;;;;;;;;;;5155828;27;20204;-69
2022/03/16 03:58:45;;;;;;;9.60;8.90;;;;;;;;;;5157820;27;20209;-68
2022/03/16 04:01:32;;;;;;;9.40;8.70;;;;;;;;;;5157563;27;20250;-69
2022/03/16 04:04:20;;;;;;;9.50;8.80;;;;;;;;;;5155046;27;20287;-68
2022/03/16 04:07:07;;;;;;;10.00;9.30;;;;;;;;;;5161451;27;20229;-68
2022/03/16 04:09:54;;;;;;;10.23;9.43;;;;;;;;;;5159268;27;20266;-68
2022/03/16 04:12:41;;;;;;;9.47;8.77;;;;;;;;;;5156808;27;20206;-68
2022/03/16 04:15:28;;;;;;;9.93;9.13;;;;;;;;;;5156141;27;20212;-68
2022/03/16 04:18:15;;;;;;;10.17;9.37;;;;;;;;;;5158069;27;20333;-68
2022/03/16 04:21:03;;;;;;;10.07;9.27;;;;;;;;;;5165406;27;20286;-69
2022/03/16 04:23:50;;;;;;;9.73;9.03;;;;;;;;;;5157596;27;20206;-68
2022/03/16 04:26:37;;;;;;;9.87;9.07;;;;;;;;;;5159586;27;20289;-68
2022/03/16 04:29:24;;;;;;;9.73;9.03;;;;;;;;;;5163753;27;20219;-68
2022/03/16 04:32:11;;;;;;;10.27;9.47;;;;;;;;;;5162507;27;20245;-68
2022/03/16 04:34:58;;;;;;;10.57;9.80;;;;;;;;;;5149160;27;20232;-68
2022/03/16 04:37:46;;;;;;;9.90;9.10;;;;;;;;;;5156236;27;20204;-68
2022/03/16 04:40:33;;;;;;;10.23;9.43;;;;;;;;;;5157338;27;20249;-68
2022/03/16 04:43:20;;;;;;;10.13;9.33;;;;;;;;;;5159415;27;20340;-68
2022/03/16 04:46:07;;;;;;;10.03;9.30;;;;;;;;;;5150013;27;20255;-67
2022/03/16 04:48:54;;;;;;;10.33;9.53;;;;;;;;;;5158464;27;20447;-68
2022/03/16 04:51:41;;;;;;;10.20;9.30;;;;;;;;;;5155027;27;20567;-68
2022/03/16 04:54:29;;;;;;;9.77;9.00;;;;;;;;;;5153079;27;20310;-68
2022/03/16 04:57:16;;;;;;;10.23;9.47;;;;;;;;;;5160172;27;20742;-68
2022/03/16 05:00:04;;;;;;;9.53;8.83;;;;;;;;;;5156020;27;20296;-68
2022/03/16 05:02:51;;;;;;;9.67;8.97;;;;;;;;;;5162816;27;20691;-68
2022/03/16 05:05:39;;;;;;;10.07;9.37;;;;;;;;;;5153829;27;20786;-68
2022/03/16 05:08:26;;;;;;;9.07;8.37;;;;;;;;;;5162763;27;20205;-68
2022/03/16 05:11:14;;;;;;;10.30;9.50;;;;;;;;;;5160261;27;20278;-69
2022/03/16 05:14:02;;;;;;;9.73;9.03;;;;;;;;;;5157325;27;20284;-67
2022/03/16 05:16:48;;;;;;;10.03;9.33;;;;;;;;;;5155213;27;20204;-68
2022/03/16 05:19:35;;;;;;;9.67;8.97;;;;;;;;;;5147736;27;20288;-68
2022/03/16 05:22:22;;;;;;;10.40;9.60;;;;;;;;;;5153571;27;20233;-68
2022/03/16 05:25:10;;;;;;;10.13;9.33;;;;;;;;;;5155157;27;20208;-68
2022/03/16 05:27:59;;;;;;;9.97;9.17;;;;;;;;;;5154668;27;20264;-67
2022/03/16 05:30:46;;;;;;;10.57;9.67;;;;;;;;;;5156405;27;20211;-68
2022/03/16 05:33:33;;;;;;;9.97;9.17;;;;;;;;;;5155724;27;20201;-68
2022/03/16 05:36:20;;;;;;;9.60;8.80;;;;;;;;;;5159291;27;20212;-67
2022/03/16 05:39:06;;;;;;;9.40;8.70;;;;;;;;;;5159155;27;20661;-68
2022/03/16 05:41:53;;;;;;;10.63;9.73;;;;;;;;;;5156101;27;20248;-68
2022/03/16 05:44:42;;;;;;;9.60;8.90;;;;;;;;;;5150041;27;20331;-68
2022/03/16 05:47:29;;;;;;;9.50;8.80;;;;;;;;;;5152885;27;20204;-68
2022/03/16 05:50:16;;;;;;;9.27;8.57;;;;;;;;;;5158972;27;20262;-68
2022/03/16 05:53:03;;;;;;;8.73;8.13;;;;;;;;;;5156975;27;20217;-68
2022/03/16 05:55:50;;;;;;;9.43;8.73;;;;;;;;;;5163114;27;20284;-68
2022/03/16 05:58:37;;;;;;;9.13;8.43;;;;;;;;;;5152253;27;20248;-68
2022/03/16 06:01:25;;;;;;;9.60;8.80;;;;;;;;;;5164312;27;20589;-68
2022/03/16 06:04:12;;;;;;;10.13;9.23;;;;;;;;;;5160602;27;20197;-68
2022/03/16 06:06:59;;;;;;;8.73;8.03;;;;;;;;;;5159521;27;20217;-68
2022/03/16 06:09:47;;;;;;;9.30;8.60;;;;;;;;;;5161194;27;20237;-68
2022/03/16 06:12:34;;;;;;;8.87;8.17;;;;;;;;;;5156284;27;20287;-68
2022/03/16 06:15:22;;;;;;;9.70;8.90;;;;;;;;;;5158831;27;20230;-68
2022/03/16 06:18:11;;;;;;;8.87;8.27;;;;;;;;;;5149016;27;20205;-68
2022/03/16 06:20:57;;;;;;;9.30;8.60;;;;;;;;;;5162988;27;20661;-68
2022/03/16 06:23:44;;;;;;;8.50;7.90;;;;;;;;;;5162170;27;20716;-68
2022/03/16 06:26:31;;;;;;;9.37;8.67;;;;;;;;;;5159742;27;20321;-67
2022/03/16 06:29:18;;;;;;;8.07;7.47;;;;;;;;;;5162253;27;20608;-68
2022/03/16 06:32:06;;;;;;;8.53;7.93;;;;;;;;;;5162391;27;20229;-68
2022/03/16 06:34:54;;;;;;;8.93;8.23;;;;;;;;;;5165370;27;20334;-68
2022/03/16 06:37:41;;;;;;;8.47;7.87;;;;;;;;;;5158158;27;20207;-68
2022/03/16 06:40:28;;;;;;;8.50;7.90;;;;;;;;;;5159336;27;20234;-68
2022/03/16 06:43:15;;;;;;;8.37;7.83;;;;;;;;;;5160953;27;20335;-68
2022/03/16 06:46:02;;;;;;;7.83;7.30;;;;;;;;;;5161293;27;20250;-68
2022/03/16 06:48:49;;;;;;;8.03;7.53;;;;;;;;;;5163911;27;20214;-68
2022/03/16 06:51:37;;;;;;;8.13;7.53;;;;;;;;;;5165878;27;20239;-68
2022/03/16 06:54:24;;;;;;;8.43;7.83;;;;;;;;;;5159616;27;20230;-69
2022/03/16 06:57:12;;;;;;;8.00;7.50;;;;;;;;;;5161326;27;20679;-68
2022/03/16 06:59:59;;;;;;;8.60;8.00;;;;;;;;;;5158409;27;20576;-68
2022/03/16 07:02:56;;;;;;;8.27;7.67;;;;;;;;;;5153871;27;20319;-68
2022/03/16 07:05:43;;;;;;;8.30;7.70;;;;;;;;;;5162055;27;20218;-68
2022/03/16 07:08:32;;;;;;;8.90;8.20;;;;;;;;;;5152083;27;20327;-68
2022/03/16 07:11:19;;;;;;;8.17;7.57;;;;;;;;;;5158050;27;20268;-68
2022/03/16 07:17:10;;;;;;;7.70;7.20;;;;;;;;;;5157719;27;20283;-68
2022/03/16 07:19:57;;;;;;;7.43;6.93;;;;;;;;;;5153550;27;20735;-68
2022/03/16 07:22:44;;;;;;;8.43;7.73;;;;;;;;;;5150934;27;20309;-68
2022/03/16 07:25:32;;;;;;;7.30;6.80;;;;;;;;;;5157184;27;20201;-68
2022/03/16 07:28:20;;;;;;;8.17;7.60;;;;;;;;;;5165151;27;20212;-68
2022/03/16 07:31:09;;;;;;;7.53;7.03;;;;;;;;;;5153682;27;20225;-68
2022/03/16 07:33:57;;;;;;;7.30;6.90;;;;;;;;;;5160189;27;20205;-68
2022/03/16 07:36:44;;;;;;;7.93;7.43;;;;;;;;;;5156447;27;20734;-68
2022/03/16 07:39:31;;;;;;;7.50;7.00;;;;;;;;;;5157574;27;20328;-68
2022/03/16 07:42:19;;;;;;;7.50;7.00;;;;;;;;;;5152991;27;20320;-68
2022/03/16 07:45:07;;;;;;;7.33;6.93;;;;;;;;;;5153373;27;20692;-68
2022/03/16 07:47:55;;;;;;;7.33;6.83;;;;;;;;;;5164669;27;20209;-68
2022/03/16 07:50:42;;;;;;;7.00;6.60;;;;;;;;;;5155697;27;20202;-68
2022/03/16 07:53:29;;;;;;;7.07;6.57;;;;;;;;;;5155355;27;20236;-68
2022/03/16 07:56:16;;;;;;;7.17;6.70;;;;;;;;;;5159091;27;20285;-69
2022/03/16 07:59:05;;;;;;;6.93;6.53;;;;;;;;;;5155166;27;20257;-69
2022/03/16 08:01:51;;;;;;;7.27;6.77;;;;;;;;;;5156192;27;20201;-68
2022/03/16 08:04:38;;;;;;;7.53;7.03;;;;;;;;;;5154502;27;20250;-68
2022/03/16 08:07:26;;;;;;;7.17;6.77;;;;;;;;;;5154652;27;20663;-68
2022/03/16 08:10:13;;;;;;;7.43;6.77;;;;;;;;;;5153708;27;20574;-68
2022/03/16 08:13:00;;;;;;;7.03;6.53;;;;;;;;;;5154547;27;20205;-67
2022/03/16 08:15:49;;;;;;;7.50;7.00;;;;;;;;;;5151544;27;20675;-67
2022/03/16 08:18:37;;;;;;;7.20;6.70;;;;;;;;;;5155100;27;20201;-68
2022/03/16 08:21:24;;;;;;;7.30;6.80;;;;;;;;;;5154889;27;21104;-69
2022/03/16 08:24:11;;;;;;;6.47;6.07;;;;;;;;;;5149475;27;20777;-67
2022/03/16 08:26:58;;;;;;;6.63;6.23;;;;;;;;;;5155501;27;20688;-67
2022/03/16 08:29:45;;;;;;;7.07;6.60;;;;;;;;;;5151393;27;20211;-68
2022/03/16 08:32:33;;;;;;;6.90;6.40;;;;;;;;;;5152270;27;20241;-68
2022/03/16 08:35:23;;;;;;;6.37;5.97;;;;;;;;;;5159259;27;20285;-67
2022/03/16 08:38:09;;;;;;;6.63;6.23;;;;;;;;;;5157776;27;20203;-67
2022/03/16 08:40:56;;;;;;;6.57;6.17;;;;;;;;;;5157736;27;20686;-67
2022/03/16 08:43:44;;;;;;;6.77;6.30;;;;;;;;;;5156839;27;20266;-67
2022/03/16 08:46:31;;;;;;;6.33;5.70;;;;;;;;;;5151813;27;20205;-67
2022/03/16 08:49:21;;;;;;;6.27;5.87;;;;;;;;;;5148720;27;20692;-67
2022/03/16 08:52:08;;;;;;;6.80;6.40;;;;;;;;;;5154023;27;20261;-67
2022/03/16 08:54:55;;;;;;;6.43;6.03;;;;;;;;;;5152729;27;20575;-67
2022/03/16 08:57:43;;;;;;;6.30;5.80;;;;;;;;;;5154683;27;20613;-67
2022/03/16 09:00:30;;;;;;;6.30;5.90;;;;;;;;;;5160986;27;20561;-67
2022/03/16 09:03:17;;;;;;;5.90;5.60;;;;;;;;;;5154333;27;20226;-67
2022/03/16 09:06:06;;;;;;;5.80;5.40;;;;;;;;;;5154319;27;20255;-67
2022/03/16 09:08:53;;;;;;;5.90;5.50;;;;;;;;;;5159371;27;20205;-67
2022/03/16 09:11:40;;;;;;;5.73;5.43;;;;;;;;;;5152440;27;20210;-67
2022/03/16 09:14:27;;;;;;;5.20;4.90;;;;;;;;;;5155060;27;20289;-67
2022/03/16 09:17:17;;;;;;;5.60;5.30;;;;;;;;;;5155705;27;20244;-67
2022/03/16 09:20:05;;;;;;;5.90;5.50;;;;;;;;;;5147572;27;20691;-67
2022/03/16 09:22:53;;;;;;;5.27;4.97;;;;;;;;;;5160044;27;20227;-68
2022/03/16 09:25:40;;;;;;;5.30;5.00;;;;;;;;;;5163094;27;20206;-68
2022/03/16 09:28:28;;;;;;;5.77;5.37;;;;;;;;;;5156681;27;20215;-67
2022/03/16 09:31:15;;;;;;;5.43;5.03;;;;;;;;;;5147883;27;20328;-66
2022/03/16 09:34:05;;;;;;;4.70;4.40;;;;;;;;;;5152825;27;20206;-67
2022/03/16 09:36:52;;;;;;;4.87;4.57;;;;;;;;;;5156578;27;20198;-67
2022/03/16 09:39:41;;;;;;;5.00;4.70;;;;;;;;;;5155125;27;20208;-68
2022/03/16 09:42:30;;;;;;;4.80;4.50;;;;;;;;;;5151002;27;20239;-68
2022/03/16 09:45:19;;;;;;;5.00;4.70;;;;;;;;;;5153102;27;20206;-68
2022/03/16 09:48:07;;;;;;;4.80;4.50;;;;;;;;;;5160240;27;20616;-68
2022/03/16 09:50:55;;;;;;;5.57;5.17;;;;;;;;;;5154435;27;20267;-68
2022/03/16 09:53:42;;;;;;;4.97;4.67;;;;;;;;;;5157040;27;20219;-68
2022/03/16 09:56:32;;;;;;;4.73;4.43;;;;;;;;;;5153225;27;20204;-68
2022/03/16 09:59:20;;;;;;;4.67;4.37;;;;;;;;;;5162507;27;20232;-68
2022/03/16 10:02:09;;;;;;;5.03;4.63;;;;;;;;;;5155636;27;20203;-67
2022/03/16 10:04:56;;;;;;;4.50;4.30;;;;;;;;;;5159182;27;20234;-68
2022/03/16 10:07:46;;;;;;;4.27;4.07;;;;;;;;;;5160268;27;20239;-67
2022/03/16 10:13:39;;;;;;;4.53;4.33;;;;;;;;;;5146540;27;20269;-68
2022/03/16 10:17:43;;;;;;;4.63;4.33;;;;;;;;;;5146121;27;20211;-68
2022/03/16 10:19:33;;;;;;;4.50;4.20;;;;;;;;;;5160239;27;20279;-68
2022/03/16 10:22:26;;;;;;;4.20;3.90;;;;;;;;;;5148230;27;20214;-68
2022/03/16 10:25:13;;;;;;;4.47;4.17;;;;;;;;;;5156113;27;20285;-68
2022/03/16 10:28:11;;;;;;;4.90;4.50;;;;;;;;;;5149816;27;20291;-68
2022/03/16 10:31:02;;;;;;;4.40;4.17;;;;;;;;;;5158309;27;20205;-68
2022/03/16 10:33:53;;;;;;;4.47;4.20;;;;;;;;;;5159048;27;20202;-68
2022/03/16 10:36:41;;;;;;;4.67;4.37;;;;;;;;;;5151693;27;20844;-68
2022/03/16 10:39:35;;;;;;;4.03;3.83;;;;;;;;;;5155546;27;20230;-67
2022/03/16 10:48:57;;;;;;;4.47;4.17;;;;;;;;;;5161455;27;20198;-66
2022/03/16 10:51:45;;;;;;;4.60;4.20;;;;;;;;;;5158297;27;20209;-67
2022/03/16 10:54:35;;;;;;;4.63;4.33;;;;;;;;;;5153890;27;20213;-67
2022/03/16 10:57:23;;;;;;;4.63;4.30;;;;;;;;;;5157284;27;20209;-67
2022/03/16 11:00:12;;;;;;;4.57;4.27;;;;;;;;;;5162425;27;20256;-66
2022/03/16 11:03:02;;;;;;;3.63;3.43;;;;;;;;;;5160776;27;20197;-67
2022/03/16 11:05:52;;;;;;;4.20;3.90;;;;;;;;;;5162233;27;20210;-66
2022/03/16 11:08:39;;;;;;;4.17;3.97;;;;;;;;;;5150437;27;20263;-67
2022/03/16 11:14:33;;;;;;;6.23;3.73;;;;;;;;;;5153457;27;20210;-67
2022/03/16 11:17:20;;;;;;;4.00;3.70;;;;;;;;;;5157296;27;20235;-67
2022/03/16 11:20:10;;;;;;;3.87;3.67;;;;;;;;;;5159076;27;20733;-67
2022/03/16 11:26:21;;;;;;;4.17;3.77;;;;;;;;;;5159241;27;20233;-67
2022/03/16 11:29:16;;;;;;;3.73;3.43;;;;;;;;;;5155900;27;20207;-67
2022/03/16 11:32:11;;;;;;;3.83;3.53;;;;;;;;;;5158448;27;20209;-68
2022/03/16 11:35:00;;;;;;;5.43;3.50;;;;;;;;;;5162422;27;20245;-67
2022/03/16 11:37:52;;;;;;;3.33;3.13;;;;;;;;;;5155697;27;20215;-67
2022/03/16 11:40:42;;;;;;;3.50;3.30;;;;;;;;;;5168279;27;20289;-67
2022/03/16 11:43:28;;;;;;;3.50;3.30;;;;;;;;;;5156202;27;20274;-67
2022/03/16 11:46:28;;;;;;;3.30;3.10;;;;;;;;;;5160729;27;20205;-67
2022/03/16 11:49:28;;;;;;;3.80;3.50;;;;;;;;;;5157885;27;20198;-66
2022/03/16 11:52:15;;;;;;;3.50;3.30;;;;;;;;;;5160438;27;20226;-67
2022/03/16 11:55:02;;;;;;;3.00;2.90;;;;;;;;;;5142245;27;20603;-67
2022/03/16 11:57:53;;;;;;;3.20;3.00;;;;;;;;;;5154051;27;20762;-67
2022/03/16 12:00:40;;;;;;;2.80;2.70;;;;;;;;;;5163502;27;20204;-66
2022/03/16 12:03:27;;;;;;;3.30;3.10;;;;;;;;;;5160274;27;20256;-66
2022/03/16 12:06:20;;;;;;;3.50;3.20;;;;;;;;;;5154145;27;20359;-66
2022/03/16 12:09:07;;;;;;;3.17;2.93;;;;;;;;;;5152334;27;20213;-67
2022/03/16 12:15:25;;;;;;;3.30;3.10;;;;;;;;;;5149693;27;20208;-66
2022/03/16 12:18:25;;;;;;;2.80;2.70;;;;;;;;;;5158098;27;20252;-66
2022/03/16 12:21:13;;;;;;;2.73;2.60;;;;;;;;;;5153165;27;20198;-67
2022/03/16 12:25:08;;;;;;;2.93;2.73;;;;;;;;;;5155440;27;20220;-66
2022/03/16 12:30:14;;;;;;;2.93;2.73;;;;;;;;;;5159425;27;20202;-67
2022/03/16 12:33:02;;;;;;;2.80;2.60;;;;;;;;;;5155601;27;20219;-66
2022/03/16 12:35:51;;;;;;;3.10;2.90;;;;;;;;;;5152513;27;20220;-66
2022/03/16 12:38:40;;;;;;;2.97;2.77;;;;;;;;;;5150341;27;20235;-66
2022/03/16 12:44:42;;;;;;;2.87;2.67;;;;;;;;;;5156399;27;20227;-67
2022/03/16 12:47:32;;;;;;;3.00;2.80;;;;;;;;;;5151299;27;20220;-67
2022/03/16 12:50:21;;;;;;;2.63;2.43;;;;;;;;;;5157963;27;20208;-67
2022/03/16 12:53:08;;;;;;;2.97;2.67;;;;;;;;;;5161341;27;20283;-67
2022/03/16 12:55:57;;;;;;;2.80;2.60;;;;;;;;;;5157222;27;20282;-67
2022/03/16 12:58:44;;;;;;;2.40;2.30;;;;;;;;;;5157171;27;20204;-66
2022/03/16 13:01:31;;;;;;;2.10;2.00;;;;;;;;;;5158981;27;20242;-67
2022/03/16 13:04:19;;;;;;;2.50;2.30;;;;;;;;;;5154869;27;20307;-67
2022/03/16 13:07:08;;;;;;;2.70;2.50;;;;;;;;;;5148486;27;20692;-67
2022/03/16 13:09:55;;;;;;;2.50;2.40;;;;;;;;;;5156500;27;20298;-78
2022/03/16 13:12:56;;;;;;;2.77;2.60;;;;;;;;;;5162481;27;20197;-67
2022/03/16 13:15:43;;;;;;;2.20;2.10;;;;;;;;;;5153760;27;20764;-67
2022/03/16 13:18:31;;;;;;;2.03;1.93;;;;;;;;;;5156255;27;20208;-67
2022/03/16 13:21:23;;;;;;;2.70;2.30;;;;;;;;;;5154147;27;20203;-67
2022/03/16 13:24:12;;;;;;;2.20;2.10;;;;;;;;;;5156165;27;20221;-67
2022/03/16 13:27:01;;;;;;;2.23;2.13;;;;;;;;;;5159640;27;20260;-67
2022/03/16 13:29:50;;;;;;;2.17;2.07;;;;;;;;;;5153698;27;20279;-67
2022/03/16 13:32:38;;;;;;;2.07;1.97;;;;;;;;;;5155520;27;20285;-67
2022/03/16 13:35:28;;;;;;;2.23;2.03;;;;;;;;;;5156120;27;20361;-67
2022/03/16 13:38:29;;;;;;;2.20;2.10;;;;;;;;;;5154496;27;20206;-67
2022/03/16 13:41:20;;;;;;;2.10;2.00;;;;;;;;;;5161751;27;20208;-67
2022/03/16 13:44:07;;;;;;;2.10;2.00;;;;;;;;;;5160080;27;20239;-67
2022/03/16 13:46:54;;;;;;;2.27;2.10;;;;;;;;;;5153066;27;20238;-68
2022/03/16 13:49:42;;;;;;;2.50;2.30;;;;;;;;;;5152651;27;20292;-68
2022/03/16 13:52:37;;;;;;;2.10;2.00;;;;;;;;;;5157615;27;20358;-67
2022/03/16 13:55:24;;;;;;;2.03;1.93;;;;;;;;;;5159323;27;20215;-68
2022/03/16 13:58:13;;;;;;;2.40;2.20;;;;;;;;;;5152988;27;20311;-68
2022/03/16 14:01:00;;;;;;;2.13;1.80;;;;;;;;;;5152614;27;20200;-68
2022/03/16 14:03:48;;;;;;;2.47;1.90;;;;;;;;;;5158636;27;20205;-67
2022/03/16 14:06:38;;;;;;;1.93;1.83;;;;;;;;;;5144046;27;20276;-68
2022/03/16 14:09:25;;;;;;;2.40;2.20;;;;;;;;;;5159242;27;20272;-68
2022/03/16 14:12:14;;;;;;;1.80;1.70;;;;;;;;;;5158293;27;20308;-68
2022/03/16 14:15:10;;;;;;;2.13;2.03;;;;;;;;;;5153368;27;20604;-68
2022/03/16 14:18:08;;;;;;;2.10;1.90;;;;;;;;;;5156296;27;20216;-67
2022/03/16 14:20:56;;;;;;;1.93;1.80;;;;;;;;;;5156443;27;20644;-67
2022/03/16 14:23:43;;;;;;;2.13;2.03;;;;;;;;;;5157064;27;20200;-68
2022/03/16 14:26:30;;;;;;;2.10;2.00;;;;;;;;;;5164930;27;20565;-68
2022/03/16 14:29:17;;;;;;;2.17;2.07;;;;;;;;;;5153917;27;20237;-68
2022/03/16 14:32:06;;;;;;;2.43;2.23;;;;;;;;;;5155102;27;20209;-72
2022/03/16 14:34:53;;;;;;;2.43;1.90;;;;;;;;;;5162131;27;20286;-68
2022/03/16 14:37:40;;;;;;;2.37;2.17;;;;;;;;;;5156079;27;20210;-68
2022/03/16 14:40:27;;;;;;;2.30;2.20;;;;;;;;;;5158704;27;20685;-69
2022/03/16 14:43:14;;;;;;;2.60;2.40;;;;;;;;;;5155399;27;20429;-68
2022/03/16 14:46:01;;;;;;;2.80;2.47;;;;;;;;;;5156117;27;20312;-71
2022/03/16 14:48:49;;;;;;;2.87;2.10;;;;;;;;;;5156645;27;20740;-68
2022/03/16 14:51:36;;;;;;;2.37;2.17;;;;;;;;;;5158005;27;20211;-68
2022/03/16 14:54:23;;;;;;;2.40;2.30;;;;;;;;;;5160932;27;20323;-68
2022/03/16 14:57:10;;;;;;;2.50;2.30;;;;;;;;;;5156464;27;20292;-67
2022/03/16 14:59:57;;;;;;;2.43;2.23;;;;;;;;;;5153413;27;20238;-68
2022/03/16 15:02:44;;;;;;;3.00;2.30;;;;;;;;;;5158387;27;20210;-68
2022/03/16 15:05:32;;;;;;;2.10;2.00;;;;;;;;;;5156080;27;20791;-72
2022/03/16 15:08:19;;;;;;;2.90;2.07;;;;;;;;;;5151211;27;20206;-67
2022/03/16 15:11:06;;;;;;;2.00;1.90;;;;;;;;;;5155696;27;20844;-68
2022/03/16 15:13:53;;;;;;;2.23;2.13;;;;;;;;;;5155782;27;20235;-68
2022/03/16 15:16:40;;;;;;;2.13;2.03;;;;;;;;;;5153904;27;20201;-67
2022/03/16 15:19:27;;;;;;;2.37;2.17;;;;;;;;;;5158531;27;20222;-69
2022/03/16 15:22:15;;;;;;;2.30;2.20;;;;;;;;;;5161199;27;20201;-68
2022/03/16 15:25:02;;;;;;;1.97;1.87;;;;;;;;;;5160568;27;20265;-68
2022/03/16 15:27:52;;;;;;;2.17;1.97;;;;;;;;;;5153272;27;20208;-68
2022/03/16 15:30:38;;;;;;;2.30;2.10;;;;;;;;;;5157960;27;20268;-68
2022/03/16 15:33:25;;;;;;;1.97;1.87;;;;;;;;;;5152806;27;20244;-67
2022/03/16 15:36:12;;;;;;;2.27;1.90;;;;;;;;;;5154170;27;20200;-67
2022/03/16 15:39:01;;;;;;;2.23;2.13;;;;;;;;;;5149490;27;20680;-68
2022/03/16 15:44:52;;;;;;;1.93;1.83;;;;;;;;;;5156839;27;20220;-68
2022/03/16 15:47:39;;;;;;;1.83;1.73;;;;;;;;;;5158578;27;20289;-67
2022/03/16 15:50:27;;;;;;;2.20;2.10;;;;;;;;;;5159919;27;20555;-68
2022/03/16 15:53:14;;;;;;;2.23;1.93;;;;;;;;;;5157176;27;20224;-70
2022/03/16 15:56:03;;;;;;;1.73;1.63;;;;;;;;;;5159761;27;20200;-67
2022/03/16 15:58:50;;;;;;;1.87;1.77;;;;;;;;;;5155974;27;20505;-67
2022/03/16 16:01:37;;;;;;;1.90;1.80;;;;;;;;;;5153683;27;20204;-67
2022/03/16 16:04:24;;;;;;;2.17;1.97;;;;;;;;;;5163654;27;20212;-68
2022/03/16 16:07:15;;;;;;;1.77;1.67;;;;;;;;;;5155115;27;20211;-68
2022/03/16 16:10:05;;;;;;;1.70;1.60;;;;;;;;;;5156757;27;20203;-67
2022/03/16 16:12:53;;;;;;;1.50;1.50;;;;;;;;;;5150318;27;20201;-68
2022/03/16 16:15:40;;;;;;;2.20;2.00;;;;;;;;;;5153477;27;20567;-67
2022/03/16 16:18:27;;;;;;;2.07;1.90;;;;;;;;;;5156255;27;20562;-69
2022/03/16 16:21:14;;;;;;;1.97;1.77;;;;;;;;;;5160398;27;20302;-68
2022/03/16 16:24:02;;;;;;;1.77;1.67;;;;;;;;;;5154411;27;20326;-68
2022/03/16 16:26:53;;;;;;;1.80;1.70;;;;;;;;;;5155896;27;20222;-67
2022/03/16 16:29:43;;;;;;;1.80;1.70;;;;;;;;;;5156343;27;20212;-67
2022/03/16 16:32:30;;;;;;;1.73;1.63;;;;;;;;;;5156049;27;20209;-67
2022/03/16 16:35:18;;;;;;;2.20;1.90;;;;;;;;;;5157334;27;20290;-67
2022/03/16 16:38:05;;;;;;;1.93;1.83;;;;;;;;;;5155723;27;20208;-66
2022/03/16 16:40:53;;;;;;;2.10;1.90;;;;;;;;;;5154220;27;20688;-68
2022/03/16 16:43:41;;;;;;;2.23;2.03;;;;;;;;;;5158399;27;20316;-66
2022/03/16 16:46:30;;;;;;;2.47;2.07;;;;;;;;;;5158066;27;20321;-67
2022/03/16 16:49:17;;;;;;;1.63;1.53;;;;;;;;;;5159946;27;20217;-67
2022/03/16 16:52:04;;;;;;;2.30;2.20;;;;;;;;;;5147278;27;20241;-67
2022/03/16 16:54:51;;;;;;;2.20;2.10;;;;;;;;;;5157718;27;20278;-67
2022/03/16 16:57:38;;;;;;;2.23;1.90;;;;;;;;;;5155149;27;20634;-67
2022/03/16 17:00:26;;;;;;;2.23;2.13;;;;;;;;;;5161102;27;20616;-67
2022/03/16 17:03:15;;;;;;;2.00;1.80;;;;;;;;;;5159871;27;20211;-67
2022/03/16 17:06:02;;;;;;;2.17;1.97;;;;;;;;;;5147503;27;20267;-67
2022/03/16 17:08:49;;;;;;;1.80;1.70;;;;;;;;;;5158510;27;20210;-67
2022/03/16 17:11:36;;;;;;;1.83;1.73;;;;;;;;;;5152100;27;20249;-68
2022/03/16 17:14:23;;;;;;;1.90;1.80;;;;;;;;;;5150091;27;20202;-74